Time;durP1;ratioP1;P1;durP2;ratioP2;P2;SDS_P1;SDS_P2;PMS_P1;PMS_P2;Temp;Humidity;BMP_temperature;BMP_pressure;BME280_temperature;BME280_humidity;BME280_pressure;Samples;Min_cycle;Max_cycle;Signal;HPM_P1;HPM_P2
2024/01/16 00:01:23;;;;;;;11.97;5.50;;;;;;;;;;4914186;29;20222;-56
2024/01/16 00:03:49;;;;;;;12.27;5.80;;;;;;;;;;4902187;29;20271;-53
2024/01/16 00:06:15;;;;;;;19.23;5.87;;;;;;;;;;4902881;29;20229;-56
2024/01/16 00:08:41;;;;;;;16.33;6.53;;;;;;;;;;4913463;29;20200;-52
2024/01/16 00:11:07;;;;;;;15.63;6.90;;;;;;;;;;4900659;29;20279;-53
2024/01/16 00:13:33;;;;;;;17.37;7.10;;;;;;;;;;4903307;29;20545;-53
2024/01/16 00:15:59;;;;;;;17.07;7.10;;;;;;;;;;4907863;29;20192;-53
2024/01/16 00:18:25;;;;;;;14.33;6.53;;;;;;;;;;4906348;29;20190;-53
2024/01/16 00:20:51;;;;;;;14.63;6.67;;;;;;;;;;4902536;29;20241;-53
2024/01/16 00:23:17;;;;;;;18.00;6.93;;;;;;;;;;4910321;29;20275;-55
2024/01/16 00:25:43;;;;;;;16.27;6.30;;;;;;;;;;4905661;29;20195;-51
2024/01/16 00:28:09;;;;;;;15.40;6.97;;;;;;;;;;4914017;29;20187;-52
2024/01/16 00:30:35;;;;;;;13.17;5.83;;;;;;;;;;4906161;29;20321;-54
2024/01/16 00:33:02;;;;;;;10.00;5.73;;;;;;;;;;4909043;29;20570;-52
2024/01/16 00:35:28;;;;;;;12.40;5.60;;;;;;;;;;4911075;29;20290;-52
2024/01/16 00:37:54;;;;;;;9.83;4.97;;;;;;;;;;4913929;29;20768;-52
2024/01/16 00:40:20;;;;;;;12.70;5.43;;;;;;;;;;4906392;29;20228;-54
2024/01/16 00:42:46;;;;;;;12.53;5.70;;;;;;;;;;4902653;29;20251;-55
2024/01/16 00:45:12;;;;;;;11.77;5.47;;;;;;;;;;4902170;29;20185;-52
2024/01/16 00:47:38;;;;;;;12.27;6.03;;;;;;;;;;4904532;29;20219;-51
2024/01/16 00:50:04;;;;;;;18.03;6.13;;;;;;;;;;4913884;29;20561;-56
2024/01/16 00:52:30;;;;;;;17.40;5.40;;;;;;;;;;4905799;29;20720;-53
2024/01/16 00:54:56;;;;;;;14.40;6.00;;;;;;;;;;4913299;29;20421;-52
2024/01/16 00:57:22;;;;;;;17.10;6.23;;;;;;;;;;4913785;29;20668;-53
2024/01/16 00:59:48;;;;;;;13.70;5.70;;;;;;;;;;4898367;29;20267;-52
2024/01/16 01:02:15;;;;;;;18.63;6.40;;;;;;;;;;4913468;29;20589;-53
2024/01/16 01:04:41;;;;;;;17.53;6.13;;;;;;;;;;4902729;29;20216;-52
2024/01/16 01:07:08;;;;;;;16.83;6.67;;;;;;;;;;4900274;29;20710;-53
2024/01/16 01:09:34;;;;;;;18.10;6.17;;;;;;;;;;4905681;29;20653;-54
2024/01/16 01:12:00;;;;;;;13.00;6.00;;;;;;;;;;4913420;29;20184;-52
2024/01/16 01:14:29;;;;;;;14.57;6.77;;;;;;;;;;4897827;29;20192;-51
2024/01/16 01:16:55;;;;;;;16.47;6.10;;;;;;;;;;4912857;29;20218;-52
2024/01/16 01:19:21;;;;;;;18.43;6.47;;;;;;;;;;4905868;29;20189;-54
2024/01/16 01:21:47;;;;;;;13.53;6.17;;;;;;;;;;4905501;29;20216;-53
2024/01/16 01:24:12;;;;;;;19.53;7.20;;;;;;;;;;4905691;29;20279;-53
2024/01/16 01:26:38;;;;;;;15.60;6.40;;;;;;;;;;4904651;29;20216;-52
2024/01/16 01:29:04;;;;;;;12.63;5.93;;;;;;;;;;4913286;29;20266;-52
2024/01/16 01:31:30;;;;;;;13.63;6.63;;;;;;;;;;4905402;29;20762;-53
2024/01/16 01:33:56;;;;;;;17.03;6.10;;;;;;;;;;4908967;29;20559;-52
2024/01/16 01:36:22;;;;;;;13.50;6.50;;;;;;;;;;4909370;29;20234;-54
2024/01/16 01:38:48;;;;;;;13.60;5.83;;;;;;;;;;4905617;29;20671;-53
2024/01/16 01:41:14;;;;;;;13.53;5.77;;;;;;;;;;4913000;29;20216;-52
2024/01/16 01:43:40;;;;;;;13.47;6.27;;;;;;;;;;4903040;29;20192;-51
2024/01/16 01:46:06;;;;;;;17.30;6.53;;;;;;;;;;4907066;29;20246;-52
2024/01/16 01:48:33;;;;;;;17.83;6.30;;;;;;;;;;4911932;29;20191;-52
2024/01/16 01:50:59;;;;;;;17.50;6.13;;;;;;;;;;4894381;29;20247;-52
2024/01/16 01:53:26;;;;;;;20.37;6.37;;;;;;;;;;4902428;29;20195;-57
2024/01/16 01:55:52;;;;;;;16.23;6.37;;;;;;;;;;4904646;29;20441;-57
2024/01/16 01:58:18;;;;;;;14.63;5.77;;;;;;;;;;4913362;29;20614;-53
2024/01/16 02:00:44;;;;;;;20.40;6.17;;;;;;;;;;4912770;29;20208;-53
2024/01/16 02:03:10;;;;;;;12.37;5.80;;;;;;;;;;4911822;29;20266;-54
2024/01/16 02:05:37;;;;;;;13.60;6.43;;;;;;;;;;4916119;29;20324;-55
2024/01/16 02:08:03;;;;;;;14.33;6.30;;;;;;;;;;4903667;29;20279;-56
2024/01/16 02:10:29;;;;;;;11.23;5.63;;;;;;;;;;4914095;29;20290;-57
2024/01/16 02:12:55;;;;;;;16.43;5.83;;;;;;;;;;4912650;29;20796;-53
2024/01/16 02:15:21;;;;;;;18.20;5.80;;;;;;;;;;4912439;29;20203;-54
2024/01/16 02:17:48;;;;;;;12.57;5.87;;;;;;;;;;4916125;29;20216;-53
2024/01/16 02:20:14;;;;;;;21.07;5.87;;;;;;;;;;4916368;29;20248;-57
2024/01/16 02:22:40;;;;;;;14.80;6.53;;;;;;;;;;4906200;29;20187;-57
2024/01/16 02:25:06;;;;;;;23.27;6.07;;;;;;;;;;4910223;29;20188;-53
2024/01/16 02:27:32;;;;;;;11.47;5.93;;;;;;;;;;4907366;29;20208;-52
2024/01/16 02:29:58;;;;;;;16.50;7.40;;;;;;;;;;4905252;29;20195;-56
2024/01/16 02:32:24;;;;;;;17.93;6.77;;;;;;;;;;4908691;29;20193;-54
2024/01/16 02:34:50;;;;;;;13.40;6.83;;;;;;;;;;4904260;29;20252;-56
2024/01/16 02:37:16;;;;;;;16.63;7.27;;;;;;;;;;4911869;29;20267;-54
2024/01/16 02:39:42;;;;;;;16.60;7.77;;;;;;;;;;4913436;29;20203;-53
2024/01/16 02:42:08;;;;;;;16.43;7.57;;;;;;;;;;4902870;29;20226;-55
2024/01/16 02:44:34;;;;;;;20.63;8.30;;;;;;;;;;4915910;29;20196;-54
2024/01/16 02:47:00;;;;;;;26.27;8.77;;;;;;;;;;4910494;29;20213;-57
2024/01/16 02:49:26;;;;;;;18.27;8.80;;;;;;;;;;4905321;29;20202;-54
2024/01/16 02:51:52;;;;;;;22.67;8.93;;;;;;;;;;4915828;29;20195;-52
2024/01/16 02:54:18;;;;;;;20.73;8.70;;;;;;;;;;4908261;29;20191;-55
2024/01/16 02:56:45;;;;;;;18.77;8.57;;;;;;;;;;4907282;29;20211;-55
2024/01/16 02:59:11;;;;;;;16.70;8.50;;;;;;;;;;4915867;29;20192;-54
2024/01/16 03:01:37;;;;;;;21.13;8.67;;;;;;;;;;4915342;29;20215;-56
2024/01/16 03:04:03;;;;;;;21.27;8.07;;;;;;;;;;4901496;29;20712;-57
2024/01/16 03:06:29;;;;;;;19.93;8.77;;;;;;;;;;4903542;29;20231;-56
2024/01/16 03:08:55;;;;;;;25.87;8.60;;;;;;;;;;4908790;29;20211;-54
2024/01/16 03:11:21;;;;;;;14.93;7.93;;;;;;;;;;4914334;29;20275;-54
2024/01/16 03:13:49;;;;;;;17.33;7.93;;;;;;;;;;4915333;29;20736;-53
2024/01/16 03:16:15;;;;;;;19.20;8.70;;;;;;;;;;4914700;29;20219;-52
2024/01/16 03:18:42;;;;;;;17.87;8.93;;;;;;;;;;4907413;29;20188;-55
2024/01/16 03:21:08;;;;;;;19.87;8.07;;;;;;;;;;4909458;29;20208;-55
2024/01/16 03:23:34;;;;;;;16.10;8.27;;;;;;;;;;4913560;29;20188;-55
2024/01/16 03:26:00;;;;;;;21.67;8.53;;;;;;;;;;4910011;29;20264;-57
2024/01/16 03:28:26;;;;;;;22.87;8.43;;;;;;;;;;4912214;29;20192;-54
2024/01/16 03:30:53;;;;;;;17.60;8.13;;;;;;;;;;4911598;29;20656;-57
2024/01/16 03:33:20;;;;;;;27.83;8.20;;;;;;;;;;4911378;29;20184;-57
2024/01/16 03:35:47;;;;;;;18.60;8.00;;;;;;;;;;4914179;29;20184;-56
2024/01/16 03:38:13;;;;;;;15.67;7.53;;;;;;;;;;4915564;29;20228;-55
2024/01/16 03:40:39;;;;;;;15.43;6.97;;;;;;;;;;4915070;29;20275;-55
2024/01/16 03:43:05;;;;;;;16.30;7.17;;;;;;;;;;4915118;29;20195;-57
2024/01/16 03:45:31;;;;;;;16.67;7.10;;;;;;;;;;4906396;29;20613;-55
2024/01/16 03:47:57;;;;;;;26.00;7.37;;;;;;;;;;4915018;29;20801;-52
2024/01/16 03:50:23;;;;;;;20.13;7.70;;;;;;;;;;4914758;29;20231;-53
2024/01/16 03:52:49;;;;;;;17.90;7.13;;;;;;;;;;4903684;29;20188;-53
2024/01/16 03:55:15;;;;;;;15.77;7.10;;;;;;;;;;4902021;29;20646;-55
2024/01/16 03:57:42;;;;;;;14.13;7.00;;;;;;;;;;4898986;29;20717;-54
2024/01/16 04:00:12;;;;;;;18.37;7.60;;;;;;;;;;4914755;29;20184;-53
2024/01/16 04:02:38;;;;;;;14.73;7.30;;;;;;;;;;4912591;29;20183;-56
2024/01/16 04:05:05;;;;;;;19.40;7.53;;;;;;;;;;4895101;29;20604;-53
2024/01/16 04:07:31;;;;;;;16.43;7.83;;;;;;;;;;4904376;29;20220;-56
2024/01/16 04:09:57;;;;;;;14.43;6.70;;;;;;;;;;4910188;29;20185;-57
2024/01/16 04:12:23;;;;;;;15.17;6.47;;;;;;;;;;4911016;29;20192;-51
2024/01/16 04:14:49;;;;;;;15.13;7.43;;;;;;;;;;4895106;29;20602;-51
2024/01/16 04:17:15;;;;;;;17.23;7.13;;;;;;;;;;4901798;29;20291;-54
2024/01/16 04:19:41;;;;;;;18.20;6.73;;;;;;;;;;4911967;29;20196;-52
2024/01/16 04:22:07;;;;;;;13.13;7.00;;;;;;;;;;4908348;29;20219;-57
2024/01/16 04:24:33;;;;;;;18.33;7.73;;;;;;;;;;4898378;29;20275;-53
2024/01/16 04:26:59;;;;;;;13.63;6.87;;;;;;;;;;4914019;29;20640;-56
2024/01/16 04:29:25;;;;;;;25.23;7.20;;;;;;;;;;4914065;29;20184;-55
2024/01/16 04:31:51;;;;;;;15.57;7.60;;;;;;;;;;4913987;29;20206;-54
2024/01/16 04:34:17;;;;;;;14.73;7.70;;;;;;;;;;4906127;29;20188;-54
2024/01/16 04:36:46;;;;;;;15.50;6.77;;;;;;;;;;4904137;29;20226;-53
2024/01/16 04:39:12;;;;;;;14.77;6.87;;;;;;;;;;4914125;29;20203;-53
2024/01/16 04:41:38;;;;;;;17.83;7.73;;;;;;;;;;4905947;29;20208;-54
2024/01/16 04:44:04;;;;;;;14.30;7.13;;;;;;;;;;4908833;29;20213;-56
2024/01/16 04:46:30;;;;;;;16.80;7.67;;;;;;;;;;4901906;29;20220;-57
2024/01/16 04:48:56;;;;;;;13.83;7.73;;;;;;;;;;4899246;29;20195;-57
2024/01/16 04:51:22;;;;;;;20.50;8.70;;;;;;;;;;4898699;29;20222;-57
2024/01/16 04:53:48;;;;;;;16.53;8.27;;;;;;;;;;4905677;29;20672;-57
2024/01/16 04:56:14;;;;;;;18.50;8.57;;;;;;;;;;4898809;29;20291;-53
2024/01/16 04:58:40;;;;;;;14.10;8.60;;;;;;;;;;4904536;29;20188;-51
2024/01/16 05:01:06;;;;;;;17.10;8.97;;;;;;;;;;4913490;29;20239;-51
2024/01/16 05:03:32;;;;;;;14.00;8.30;;;;;;;;;;4905729;29;20610;-55
2024/01/16 05:05:58;;;;;;;19.77;8.27;;;;;;;;;;4912918;29;20291;-53
2024/01/16 05:08:24;;;;;;;14.93;8.10;;;;;;;;;;4913367;29;20199;-51
2024/01/16 05:10:50;;;;;;;19.90;8.60;;;;;;;;;;4897043;29;20731;-52
2024/01/16 05:13:16;;;;;;;18.63;8.57;;;;;;;;;;4913616;29;20192;-54
2024/01/16 05:15:42;;;;;;;19.30;8.40;;;;;;;;;;4897054;29;20606;-54
2024/01/16 05:18:09;;;;;;;18.20;8.70;;;;;;;;;;4905853;29;20218;-54
2024/01/16 05:20:36;;;;;;;18.27;8.83;;;;;;;;;;4912139;29;20701;-53
2024/01/16 05:23:02;;;;;;;16.23;8.87;;;;;;;;;;4899407;29;20195;-55
2024/01/16 05:25:28;;;;;;;21.77;9.60;;;;;;;;;;4912141;29;20199;-54
2024/01/16 05:27:54;;;;;;;19.87;10.40;;;;;;;;;;4906103;29;20227;-54
2024/01/16 05:30:20;;;;;;;17.63;8.73;;;;;;;;;;4905477;29;20571;-54
2024/01/16 05:32:46;;;;;;;15.93;8.23;;;;;;;;;;4905153;29;20196;-52
2024/01/16 05:35:11;;;;;;;16.80;7.33;;;;;;;;;;4908772;29;20181;-55
2024/01/16 05:37:37;;;;;;;19.67;8.47;;;;;;;;;;4915525;29;20211;-54
2024/01/16 05:40:04;;;;;;;15.10;8.10;;;;;;;;;;4904445;29;20267;-53
2024/01/16 05:42:30;;;;;;;14.27;8.77;;;;;;;;;;4906541;29;20215;-53
2024/01/16 05:44:56;;;;;;;16.50;7.70;;;;;;;;;;4916365;29;20192;-57
2024/01/16 05:47:24;;;;;;;18.30;7.60;;;;;;;;;;4916967;29;20207;-54
2024/01/16 05:49:50;;;;;;;14.33;7.57;;;;;;;;;;4917003;29;20456;-53
2024/01/16 05:52:16;;;;;;;17.30;7.90;;;;;;;;;;4916950;29;20270;-54
2024/01/16 05:54:42;;;;;;;18.13;8.13;;;;;;;;;;4900708;29;20570;-56
2024/01/16 05:57:08;;;;;;;16.17;8.63;;;;;;;;;;4909045;29;20215;-54
2024/01/16 05:59:34;;;;;;;17.23;7.97;;;;;;;;;;4901029;29;20197;-54
2024/01/16 06:02:00;;;;;;;18.97;8.70;;;;;;;;;;4912286;29;20212;-57
2024/01/16 06:04:26;;;;;;;21.80;8.60;;;;;;;;;;4913441;29;20542;-56
2024/01/16 06:06:52;;;;;;;19.20;8.77;;;;;;;;;;4915950;29;20219;-57
2024/01/16 06:09:18;;;;;;;18.47;9.17;;;;;;;;;;4909936;29;20236;-54
2024/01/16 06:11:44;;;;;;;17.43;8.57;;;;;;;;;;4907869;29;20619;-53
2024/01/16 06:14:12;;;;;;;18.20;8.97;;;;;;;;;;4902877;29;20803;-57
2024/01/16 06:16:38;;;;;;;13.77;7.60;;;;;;;;;;4898682;29;20216;-53
2024/01/16 06:19:04;;;;;;;26.53;11.97;;;;;;;;;;4908644;29;20199;-57
2024/01/16 06:21:30;;;;;;;18.37;9.17;;;;;;;;;;4907949;29;20250;-54
2024/01/16 06:23:56;;;;;;;21.33;9.00;;;;;;;;;;4916339;29;20184;-53
2024/01/16 06:26:22;;;;;;;19.10;9.07;;;;;;;;;;4915821;29;20199;-55
2024/01/16 06:28:48;;;;;;;20.27;8.80;;;;;;;;;;4916063;29;20645;-57
2024/01/16 06:31:14;;;;;;;27.17;11.53;;;;;;;;;;4916238;29;20243;-56
2024/01/16 06:33:40;;;;;;;23.90;10.20;;;;;;;;;;4916061;29;20663;-55
2024/01/16 06:36:06;;;;;;;21.67;10.50;;;;;;;;;;4907676;29;20208;-54
2024/01/16 06:38:32;;;;;;;20.70;10.57;;;;;;;;;;4900625;29;20189;-57
2024/01/16 06:40:59;;;;;;;27.50;10.00;;;;;;;;;;4911860;29;20652;-55
2024/01/16 06:43:25;;;;;;;22.60;10.33;;;;;;;;;;4912657;29;20191;-54
2024/01/16 06:45:51;;;;;;;20.70;11.23;;;;;;;;;;4904089;29;20193;-53
2024/01/16 06:48:17;;;;;;;24.17;10.53;;;;;;;;;;4903820;29;20180;-54
2024/01/16 06:50:43;;;;;;;19.63;10.57;;;;;;;;;;4915868;29;20656;-52
2024/01/16 06:53:08;;;;;;;20.43;10.23;;;;;;;;;;4910474;29;20275;-52
2024/01/16 06:55:34;;;;;;;21.13;11.10;;;;;;;;;;4905181;29;20295;-52
2024/01/16 06:58:00;;;;;;;19.40;9.77;;;;;;;;;;4915590;29;20629;-54
2024/01/16 07:00:27;;;;;;;21.80;10.93;;;;;;;;;;4915595;29;20267;-53
2024/01/16 07:02:54;;;;;;;21.23;9.50;;;;;;;;;;4915798;29;20188;-55
2024/01/16 07:05:21;;;;;;;28.30;11.93;;;;;;;;;;4906878;29;20219;-53
2024/01/16 07:07:47;;;;;;;18.23;9.10;;;;;;;;;;4912675;29;20244;-53
2024/01/16 07:10:18;;;;;;;28.63;10.67;;;;;;;;;;4910610;29;20271;-56
2024/01/16 07:12:44;;;;;;;20.60;8.50;;;;;;;;;;4900236;29;20192;-55
2024/01/16 07:15:10;;;;;;;16.37;7.73;;;;;;;;;;4914973;29;20274;-54
2024/01/16 07:17:36;;;;;;;16.20;8.03;;;;;;;;;;4907382;29;20299;-54
2024/01/16 07:20:02;;;;;;;22.83;8.30;;;;;;;;;;4915318;29;20201;-54
2024/01/16 07:22:28;;;;;;;19.47;7.47;;;;;;;;;;4907314;29;20220;-55
2024/01/16 07:24:55;;;;;;;17.03;8.00;;;;;;;;;;4907172;29;20258;-55
2024/01/16 07:27:21;;;;;;;17.83;7.87;;;;;;;;;;4908397;29;20219;-54
2024/01/16 07:29:47;;;;;;;20.53;8.40;;;;;;;;;;4906999;29;20192;-55
2024/01/16 07:32:13;;;;;;;17.97;8.53;;;;;;;;;;4909045;29;20259;-54
2024/01/16 07:34:39;;;;;;;25.30;8.77;;;;;;;;;;4903881;29;20657;-53
2024/01/16 07:37:05;;;;;;;13.40;7.57;;;;;;;;;;4900816;29;20218;-56
2024/01/16 07:39:31;;;;;;;20.13;9.03;;;;;;;;;;4906513;29;20228;-53
2024/01/16 07:41:57;;;;;;;16.13;8.43;;;;;;;;;;4904177;29;20204;-56
2024/01/16 07:44:23;;;;;;;16.63;7.43;;;;;;;;;;4896435;29;20320;-51
2024/01/16 07:46:49;;;;;;;14.20;8.10;;;;;;;;;;4911020;29;20200;-53
2024/01/16 07:49:16;;;;;;;18.03;7.70;;;;;;;;;;4910217;29;20187;-55
2024/01/16 07:51:42;;;;;;;18.53;8.10;;;;;;;;;;4899272;29;20249;-54
2024/01/16 07:54:09;;;;;;;22.13;9.33;;;;;;;;;;4906927;29;20270;-52
2024/01/16 07:56:36;;;;;;;18.97;8.13;;;;;;;;;;4913971;29;20226;-53
2024/01/16 07:59:02;;;;;;;20.67;8.57;;;;;;;;;;4909760;29;20188;-54
2024/01/16 08:01:28;;;;;;;24.50;9.80;;;;;;;;;;4903576;29;20231;-56
2024/01/16 08:03:55;;;;;;;21.77;11.67;;;;;;;;;;4906695;29;20194;-53
2024/01/16 08:06:21;;;;;;;19.00;9.30;;;;;;;;;;4898767;29;20236;-53
2024/01/16 08:08:48;;;;;;;14.70;7.43;;;;;;;;;;4911000;29;20184;-55
2024/01/16 08:11:14;;;;;;;16.53;7.57;;;;;;;;;;4909545;29;20192;-54
2024/01/16 08:13:40;;;;;;;15.27;6.43;;;;;;;;;;4906096;29;20219;-54
2024/01/16 08:16:06;;;;;;;15.33;5.87;;;;;;;;;;4913302;29;20240;-54
2024/01/16 08:18:32;;;;;;;16.57;5.93;;;;;;;;;;4913963;29;20274;-54
2024/01/16 08:20:58;;;;;;;10.53;5.40;;;;;;;;;;4910109;29;20592;-54
2024/01/16 08:23:24;;;;;;;13.97;5.90;;;;;;;;;;4910617;29;20179;-57
2024/01/16 08:25:51;;;;;;;12.17;6.03;;;;;;;;;;4913006;29;20709;-53
2024/01/16 08:28:17;;;;;;;14.60;5.73;;;;;;;;;;4913744;29;20215;-55
2024/01/16 08:30:43;;;;;;;19.10;5.57;;;;;;;;;;4913683;29;20220;-55
2024/01/16 08:33:09;;;;;;;17.40;6.20;;;;;;;;;;4913528;29;20732;-57
2024/01/16 08:35:35;;;;;;;15.57;6.03;;;;;;;;;;4897380;29;20220;-54
2024/01/16 08:38:01;;;;;;;17.53;5.57;;;;;;;;;;4901434;29;20247;-57
2024/01/16 08:40:27;;;;;;;14.27;5.63;;;;;;;;;;4910306;29;20195;-50
2024/01/16 08:42:54;;;;;;;12.30;5.97;;;;;;;;;;4918071;29;20264;-52
2024/01/16 08:45:24;;;;;;;13.30;5.73;;;;;;;;;;4909049;29;20230;-55
2024/01/16 08:47:50;;;;;;;17.23;6.50;;;;;;;;;;4910221;29;20294;-55
2024/01/16 08:50:16;;;;;;;20.10;6.20;;;;;;;;;;4908574;29;20191;-55
2024/01/16 08:52:42;;;;;;;18.67;5.90;;;;;;;;;;4911450;29;20183;-54
2024/01/16 08:55:09;;;;;;;11.33;5.90;;;;;;;;;;4906942;29;20246;-54
2024/01/16 08:57:36;;;;;;;13.90;5.43;;;;;;;;;;4904280;29;20207;-53
2024/01/16 09:00:03;;;;;;;16.23;6.40;;;;;;;;;;4906828;29;20589;-56
2024/01/16 09:02:29;;;;;;;16.87;6.43;;;;;;;;;;4912869;29;20223;-57
2024/01/16 09:04:55;;;;;;;13.10;4.60;;;;;;;;;;4912529;29;20187;-54
2024/01/16 09:07:22;;;;;;;13.67;4.40;;;;;;;;;;4913013;29;20223;-55
2024/01/16 09:09:48;;;;;;;15.33;5.60;;;;;;;;;;4913093;29;20234;-52
2024/01/16 09:12:15;;;;;;;15.90;5.20;;;;;;;;;;4913583;29;20187;-55
2024/01/16 09:14:41;;;;;;;15.97;5.37;;;;;;;;;;4904575;29;20203;-53
2024/01/16 09:17:07;;;;;;;13.73;4.90;;;;;;;;;;4899833;29;20208;-54
2024/01/16 09:19:33;;;;;;;17.67;3.80;;;;;;;;;;4910079;29;20196;-53
2024/01/16 09:21:59;;;;;;;11.37;3.10;;;;;;;;;;4898320;29;20203;-55
2024/01/16 09:24:25;;;;;;;10.13;3.23;;;;;;;;;;4905274;29;20188;-55
2024/01/16 09:26:51;;;;;;;7.63;3.03;;;;;;;;;;4901338;29;20672;-52
2024/01/16 09:29:17;;;;;;;11.83;3.13;;;;;;;;;;4908302;29;20186;-55
2024/01/16 09:31:43;;;;;;;10.43;2.90;;;;;;;;;;4902692;29;20583;-54
2024/01/16 09:34:09;;;;;;;8.93;3.40;;;;;;;;;;4901159;29;20250;-52
2024/01/16 09:36:36;;;;;;;11.40;4.13;;;;;;;;;;4900891;29;20693;-53
2024/01/16 09:39:03;;;;;;;12.70;4.30;;;;;;;;;;4898487;29;20212;-52
2024/01/16 09:41:32;;;;;;;18.03;6.77;;;;;;;;;;4896215;29;20234;-53
2024/01/16 09:43:58;;;;;;;16.23;4.47;;;;;;;;;;4892681;29;20617;-55
2024/01/16 09:46:25;;;;;;;8.50;3.27;;;;;;;;;;4899438;29;20212;-56
2024/01/16 09:48:51;;;;;;;9.13;2.97;;;;;;;;;;4901407;29;20248;-54
2024/01/16 09:51:18;;;;;;;6.40;2.47;;;;;;;;;;4899805;29;20266;-53
2024/01/16 09:53:44;;;;;;;13.20;4.37;;;;;;;;;;4904414;29;20255;-51
2024/01/16 09:56:15;;;;;;;4.40;2.43;;;;;;;;;;4903658;29;20215;-55
2024/01/16 09:58:41;;;;;;;7.50;2.20;;;;;;;;;;4912292;29;20199;-54
2024/01/16 10:01:07;;;;;;;9.47;2.57;;;;;;;;;;4907079;29;20204;-49
2024/01/16 10:03:35;;;;;;;18.23;3.30;;;;;;;;;;4909443;29;20196;-54
2024/01/16 10:06:07;;;;;;;6.63;2.30;;;;;;;;;;4903554;29;20612;-51
2024/01/16 10:08:34;;;;;;;10.83;2.50;;;;;;;;;;4904015;29;20255;-52
2024/01/16 10:11:01;;;;;;;5.80;2.30;;;;;;;;;;4907939;29;20220;-51
2024/01/16 10:13:27;;;;;;;6.50;1.90;;;;;;;;;;4900590;29;20278;-52
2024/01/16 10:15:55;;;;;;;18.33;2.07;;;;;;;;;;4903409;29;20211;-52
2024/01/16 10:18:25;;;;;;;6.63;2.30;;;;;;;;;;4912080;29;20184;-52
2024/01/16 10:20:52;;;;;;;7.67;2.40;;;;;;;;;;4910280;29;20208;-54
2024/01/16 10:23:25;;;;;;;9.80;2.60;;;;;;;;;;4904481;29;20193;-51
2024/01/16 10:26:07;;;;;;;8.30;2.33;;;;;;;;;;4914399;29;20188;-53
2024/01/16 10:28:34;;;;;;;4.00;2.20;;;;;;;;;;4907094;29;20250;-51
2024/01/16 10:31:04;;;;;;;6.53;2.30;;;;;;;;;;4904307;29;20625;-52
2024/01/16 10:33:30;;;;;;;9.23;2.10;;;;;;;;;;4912221;29;20502;-52
2024/01/16 10:36:12;;;;;;;9.87;2.03;;;;;;;;;;4907245;29;20614;-52
2024/01/16 10:38:43;;;;;;;7.63;2.10;;;;;;;;;;4913766;29;20270;-52
2024/01/16 10:41:10;;;;;;;8.90;2.43;;;;;;;;;;4900936;29;20350;-53
2024/01/16 10:43:36;;;;;;;9.77;2.17;;;;;;;;;;4906515;29;20196;-50
2024/01/16 10:46:10;;;;;;;15.23;2.30;;;;;;;;;;4907771;29;20175;-51
2024/01/16 10:48:36;;;;;;;15.83;1.90;;;;;;;;;;4915064;29;20195;-52
2024/01/16 10:51:03;;;;;;;4.83;1.80;;;;;;;;;;4902946;29;20732;-52
2024/01/16 10:53:32;;;;;;;4.30;1.80;;;;;;;;;;4911838;29;20541;-54
2024/01/16 10:56:00;;;;;;;9.60;1.80;;;;;;;;;;4903405;29;20191;-52
2024/01/16 10:58:26;;;;;;;7.37;2.33;;;;;;;;;;4911382;29;20206;-54
2024/01/16 11:00:57;;;;;;;8.87;2.40;;;;;;;;;;4914780;29;20267;-53
2024/01/16 11:03:41;;;;;;;7.83;1.77;;;;;;;;;;4906760;29;20592;-54
2024/01/16 11:06:07;;;;;;;8.07;1.97;;;;;;;;;;4903044;29;20242;-53
2024/01/16 11:08:35;;;;;;;8.43;2.60;;;;;;;;;;4904120;29;20181;-55
2024/01/16 11:11:03;;;;;;;9.67;2.03;;;;;;;;;;4906936;29;20215;-54
2024/01/16 11:13:29;;;;;;;5.50;1.80;;;;;;;;;;4913202;29;20195;-54
2024/01/16 11:15:56;;;;;;;5.80;2.10;;;;;;;;;;4906212;29;20631;-55
2024/01/16 11:18:22;;;;;;;9.23;1.80;;;;;;;;;;4907422;29;20216;-52
2024/01/16 11:20:48;;;;;;;12.83;1.97;;;;;;;;;;4905753;29;20207;-54
2024/01/16 11:23:14;;;;;;;15.10;2.00;;;;;;;;;;4906554;29;20192;-54
2024/01/16 11:25:40;;;;;;;8.60;1.90;;;;;;;;;;4905942;29;20548;-52
2024/01/16 11:28:09;;;;;;;7.83;2.13;;;;;;;;;;4905533;29;20284;-51
2024/01/16 11:30:35;;;;;;;7.07;1.60;;;;;;;;;;4906467;29;20648;-53
2024/01/16 11:33:01;;;;;;;5.03;1.93;;;;;;;;;;4909079;29;20181;-52
2024/01/16 11:35:34;;;;;;;11.13;2.47;;;;;;;;;;4909956;29;20246;-53
2024/01/16 11:38:06;;;;;;;9.10;2.20;;;;;;;;;;4899488;29;20287;-51
2024/01/16 11:40:33;;;;;;;10.53;3.00;;;;;;;;;;4913972;29;20270;-52
2024/01/16 11:42:59;;;;;;;10.60;2.60;;;;;;;;;;4910207;29;20176;-57
2024/01/16 11:45:28;;;;;;;16.03;2.97;;;;;;;;;;4902431;29;20530;-55
2024/01/16 11:48:10;;;;;;;5.67;2.50;;;;;;;;;;4910899;29;20248;-55
2024/01/16 11:50:36;;;;;;;15.20;2.37;;;;;;;;;;4910498;29;20183;-57
2024/01/16 11:53:03;;;;;;;5.53;2.47;;;;;;;;;;4914455;29;20187;-58
2024/01/16 11:55:31;;;;;;;11.43;2.50;;;;;;;;;;4913603;29;20684;-58
2024/01/16 11:58:15;;;;;;;11.47;2.13;;;;;;;;;;4906413;29;20549;-57
2024/01/16 12:00:42;;;;;;;10.20;1.83;;;;;;;;;;4914161;29;20207;-56
2024/01/16 12:03:08;;;;;;;3.73;1.37;;;;;;;;;;4914117;29;20556;-56
2024/01/16 12:05:34;;;;;;;7.30;1.80;;;;;;;;;;4897875;29;20569;-57
2024/01/16 12:08:03;;;;;;;10.87;1.80;;;;;;;;;;4910073;29;20358;-55
2024/01/16 12:10:29;;;;;;;9.03;2.53;;;;;;;;;;4903248;29;20180;-56
2024/01/16 12:12:59;;;;;;;5.17;1.90;;;;;;;;;;4906309;29;20288;-57
2024/01/16 12:15:25;;;;;;;3.70;1.73;;;;;;;;;;4905560;29;20195;-53
2024/01/16 12:17:55;;;;;;;5.87;1.90;;;;;;;;;;4905942;29;20228;-56
2024/01/16 12:20:22;;;;;;;7.10;2.37;;;;;;;;;;4899469;29;20212;-58
2024/01/16 12:22:54;;;;;;;13.80;2.70;;;;;;;;;;4894794;29;20224;-57
2024/01/16 12:25:21;;;;;;;6.93;1.90;;;;;;;;;;4902138;29;20184;-55
2024/01/16 12:27:54;;;;;;;9.33;2.30;;;;;;;;;;4897095;29;20666;-59
2024/01/16 12:30:20;;;;;;;5.00;1.87;;;;;;;;;;4899270;29;20176;-55
2024/01/16 12:32:46;;;;;;;7.50;1.93;;;;;;;;;;4904673;29;20195;-56
2024/01/16 12:35:13;;;;;;;7.07;1.97;;;;;;;;;;4912976;29;20243;-57
2024/01/16 12:37:39;;;;;;;7.13;2.10;;;;;;;;;;4896695;29;20204;-58
2024/01/16 12:40:06;;;;;;;5.90;1.53;;;;;;;;;;4894801;29;20196;-55
2024/01/16 12:42:32;;;;;;;4.70;1.97;;;;;;;;;;4910629;29;20278;-57
2024/01/16 12:44:59;;;;;;;7.33;1.90;;;;;;;;;;4912689;29;20180;-57
2024/01/16 12:47:25;;;;;;;5.07;2.07;;;;;;;;;;4905601;29;20345;-56
2024/01/16 12:49:51;;;;;;;8.87;2.07;;;;;;;;;;4913307;29;20220;-56
2024/01/16 12:52:20;;;;;;;9.37;1.70;;;;;;;;;;4899550;29;20508;-54
2024/01/16 12:54:46;;;;;;;11.50;2.47;;;;;;;;;;4901595;29;20555;-50
2024/01/16 12:57:19;;;;;;;8.03;2.27;;;;;;;;;;4894088;29;20208;-51
2024/01/16 12:59:46;;;;;;;9.63;2.17;;;;;;;;;;4903828;29;20200;-55
2024/01/16 13:02:21;;;;;;;6.60;2.23;;;;;;;;;;4898225;29;20212;-54
2024/01/16 13:04:47;;;;;;;10.23;2.10;;;;;;;;;;4893051;29;20644;-50
2024/01/16 13:07:17;;;;;;;4.17;1.50;;;;;;;;;;4904273;29;20254;-51
2024/01/16 13:09:44;;;;;;;10.77;2.30;;;;;;;;;;4904993;29;20195;-51
2024/01/16 13:12:10;;;;;;;6.67;2.03;;;;;;;;;;4902889;29;20192;-55
2024/01/16 13:14:37;;;;;;;8.17;1.63;;;;;;;;;;4904626;29;20576;-50
2024/01/16 13:17:05;;;;;;;11.07;2.20;;;;;;;;;;4901520;29;20207;-53
2024/01/16 13:19:33;;;;;;;6.90;1.80;;;;;;;;;;4903621;29;20204;-58
2024/01/16 13:21:59;;;;;;;7.03;2.00;;;;;;;;;;4903860;29;20290;-53
2024/01/16 13:24:25;;;;;;;4.97;1.83;;;;;;;;;;4901378;29;20676;-53
2024/01/16 13:26:51;;;;;;;4.97;1.67;;;;;;;;;;4900542;29;20224;-53
2024/01/16 13:29:17;;;;;;;8.40;3.20;;;;;;;;;;4901945;29;20228;-50
2024/01/16 13:31:43;;;;;;;11.67;4.00;;;;;;;;;;4905106;29;20199;-50
2024/01/16 13:34:09;;;;;;;10.13;3.30;;;;;;;;;;4905708;29;20572;-51
2024/01/16 13:36:36;;;;;;;15.20;4.93;;;;;;;;;;4911737;29;20223;-52
2024/01/16 13:39:02;;;;;;;7.63;3.23;;;;;;;;;;4904761;29;20204;-49
2024/01/16 13:41:27;;;;;;;15.53;3.43;;;;;;;;;;4904998;29;20675;-51
2024/01/16 13:43:53;;;;;;;12.10;3.63;;;;;;;;;;4904462;29;20188;-50
2024/01/16 13:46:19;;;;;;;21.73;7.57;;;;;;;;;;4911623;29;20270;-49
2024/01/16 13:48:45;;;;;;;32.10;10.87;;;;;;;;;;4910283;29;20188;-50
2024/01/16 13:51:11;;;;;;;16.27;5.20;;;;;;;;;;4893671;29;20196;-53
2024/01/16 13:53:37;;;;;;;9.30;3.87;;;;;;;;;;4909754;29;20192;-53
2024/01/16 13:56:03;;;;;;;10.93;3.80;;;;;;;;;;4913324;29;20207;-51
2024/01/16 13:58:29;;;;;;;15.67;4.00;;;;;;;;;;4908100;29;20204;-50
2024/01/16 14:00:56;;;;;;;8.90;3.37;;;;;;;;;;4907354;29;20211;-51
2024/01/16 14:03:22;;;;;;;12.87;3.10;;;;;;;;;;4909744;29;20203;-53
2024/01/16 14:05:48;;;;;;;7.27;2.90;;;;;;;;;;4913930;29;20203;-55
2024/01/16 14:08:14;;;;;;;11.57;3.30;;;;;;;;;;4902735;29;20185;-55
2024/01/16 14:10:41;;;;;;;7.83;2.37;;;;;;;;;;4912649;29;20222;-54
2024/01/16 14:13:07;;;;;;;8.50;3.07;;;;;;;;;;4896989;29;20275;-54
2024/01/16 14:15:33;;;;;;;7.07;2.00;;;;;;;;;;4896593;29;20232;-53
2024/01/16 14:17:59;;;;;;;5.03;2.40;;;;;;;;;;4915487;29;20267;-54
2024/01/16 14:20:26;;;;;;;7.87;2.27;;;;;;;;;;4915618;29;20572;-55
2024/01/16 14:22:52;;;;;;;8.80;2.10;;;;;;;;;;4908138;29;20226;-53
2024/01/16 14:25:19;;;;;;;8.40;2.60;;;;;;;;;;4908858;29;20181;-57
2024/01/16 14:27:46;;;;;;;6.30;2.40;;;;;;;;;;4904345;29;20212;-57
2024/01/16 14:30:13;;;;;;;10.80;2.90;;;;;;;;;;4910170;29;20192;-53